Time;durP1;ratioP1;P1;durP2;ratioP2;P2;SDS_P1;SDS_P2;PMS_P1;PMS_P2;Temp;Humidity;BMP_temperature;BMP_pressure;BME280_temperature;BME280_humidity;BME280_pressure;Samples;Min_cycle;Max_cycle;Signal;HPM_P1;HPM_P2
2022/03/12 00:01:46;;;;;;;8.43;5.72;;;;;;;4.82;31.20;96809.94;5018573;28;20459;-78
2022/03/12 00:04:15;;;;;;;9.50;5.85;;;;;;;4.69;31.46;96809.44;5018557;28;20081;-78
2022/03/12 00:06:42;;;;;;;16.48;6.25;;;;;;;4.60;31.53;96808.50;5018500;28;20072;-77
2022/03/12 00:09:10;;;;;;;8.38;5.53;;;;;;;4.61;31.29;96807.53;5019248;28;20050;-78
2022/03/12 00:11:49;;;;;;;12.77;6.97;;;;;;;4.65;31.23;96808.88;5018891;28;20049;-77
2022/03/12 00:14:22;;;;;;;9.15;5.65;;;;;;;4.67;31.18;96821.66;5018574;28;20066;-78
2022/03/12 00:16:50;;;;;;;10.15;6.50;;;;;;;4.62;31.06;96813.53;5017883;28;20045;-79
2022/03/12 00:19:21;;;;;;;8.60;5.60;;;;;;;4.50;31.45;96813.69;5019044;28;20050;-80
2022/03/12 00:21:50;;;;;;;8.60;5.85;;;;;;;4.42;31.42;96810.16;5018716;28;20060;-78
2022/03/12 00:24:18;;;;;;;7.32;5.63;;;;;;;4.42;31.72;96823.88;5018500;28;20045;-78
2022/03/12 00:26:50;;;;;;;10.35;5.40;;;;;;;4.41;31.36;96824.81;5018001;28;20049;-79
2022/03/12 00:29:20;;;;;;;10.73;5.55;;;;;;;4.33;31.50;96829.88;5019340;28;20061;-77
2022/03/12 00:31:50;;;;;;;8.52;5.75;;;;;;;4.27;31.47;96833.81;5018636;28;20053;-79
2022/03/12 00:34:18;;;;;;;10.23;5.75;;;;;;;4.24;31.89;96834.09;5018179;28;20050;-78
2022/03/12 00:36:47;;;;;;;8.63;6.57;;;;;;;4.20;31.88;96839.63;5017634;28;20042;-77
2022/03/12 00:39:16;;;;;;;10.38;5.82;;;;;;;4.16;31.77;96835.72;5017641;28;20103;-77
2022/03/12 00:41:44;;;;;;;7.32;5.55;;;;;;;4.13;31.69;96835.03;5017943;28;20056;-77
2022/03/12 00:44:14;;;;;;;8.25;5.70;;;;;;;4.13;31.75;96832.47;5017587;28;20053;-80
2022/03/12 00:46:41;;;;;;;9.07;6.43;;;;;;;4.11;31.95;96836.09;5016718;28;20050;-77
2022/03/12 00:49:09;;;;;;;9.63;5.60;;;;;;;4.13;31.97;96831.63;5017477;28;20543;-77
2022/03/12 00:51:38;;;;;;;9.75;5.88;;;;;;;4.11;32.02;96833.53;5017334;28;20520;-78
2022/03/12 00:54:06;;;;;;;7.00;5.05;;;;;;;4.08;32.19;96837.19;5017587;28;20062;-78
2022/03/12 00:56:34;;;;;;;7.32;5.50;;;;;;;4.06;31.97;96828.78;5016686;28;20053;-79
2022/03/12 00:59:01;;;;;;;7.43;5.72;;;;;;;4.00;31.83;96829.34;5017850;28;20058;-78
2022/03/12 01:01:29;;;;;;;9.27;5.95;;;;;;;3.92;31.95;96832.56;5017701;28;20050;-77
2022/03/12 01:03:56;;;;;;;8.93;5.90;;;;;;;3.89;32.16;96834.59;5018253;28;20053;-79
2022/03/12 01:06:24;;;;;;;8.10;5.85;;;;;;;3.92;32.15;96826.59;5016346;28;20049;-78
2022/03/12 01:08:53;;;;;;;8.10;5.57;;;;;;;3.94;32.31;96819.53;5016826;28;20050;-78
2022/03/12 01:11:20;;;;;;;7.65;5.85;;;;;;;4.00;31.89;96824.16;5015337;28;20420;-76
2022/03/12 01:13:48;;;;;;;8.88;6.03;;;;;;;4.00;32.01;96829.34;5015723;28;20397;-78
2022/03/12 01:16:15;;;;;;;6.78;5.10;;;;;;;4.02;32.22;96829.97;5015030;28;20050;-78
2022/03/12 01:18:43;;;;;;;9.20;5.65;;;;;;;4.06;32.17;96833.94;5016213;28;20050;-78
2022/03/12 01:21:17;;;;;;;10.60;5.85;;;;;;;4.07;32.00;96829.59;5016518;28;20431;-78
2022/03/12 01:23:45;;;;;;;9.85;5.72;;;;;;;4.05;32.12;96842.63;5016513;28;20061;-77
2022/03/12 01:26:14;;;;;;;10.20;6.03;;;;;;;4.06;32.03;96830.53;5015538;28;20050;-78
2022/03/12 01:28:42;;;;;;;8.57;5.50;;;;;;;4.05;32.13;96837.47;5016618;28;20072;-77
2022/03/12 01:31:10;;;;;;;8.70;5.80;;;;;;;3.96;32.08;96833.13;5017805;28;20527;-76
2022/03/12 01:33:37;;;;;;;9.65;5.82;;;;;;;3.90;31.93;96833.66;5017671;28;20042;-78
2022/03/12 01:36:06;;;;;;;11.20;5.88;;;;;;;3.87;32.43;96839.91;5016448;28;20054;-78
2022/03/12 01:38:36;;;;;;;14.18;6.22;;;;;;;3.88;32.05;96826.03;5017391;28;20504;-77
2022/03/12 01:41:04;;;;;;;9.77;6.43;;;;;;;3.82;32.20;96836.91;5017325;28;20405;-78
2022/03/12 01:43:36;;;;;;;10.38;5.50;;;;;;;3.72;32.23;96834.31;5017461;28;20508;-77
2022/03/12 01:46:10;;;;;;;10.52;5.72;;;;;;;3.70;32.26;96838.78;5015780;28;20053;-78
2022/03/12 01:48:41;;;;;;;9.75;5.32;;;;;;;3.71;32.41;96844.75;5016252;28;20053;-78
2022/03/12 01:51:08;;;;;;;9.88;5.65;;;;;;;3.75;32.46;96840.16;5016119;28;20053;-77
2022/03/12 01:53:36;;;;;;;10.95;7.10;;;;;;;3.74;32.45;96829.03;5035215;28;20045;-76
2022/03/12 01:56:04;;;;;;;9.43;5.47;;;;;;;3.76;32.50;96836.63;5037388;28;20050;-82
2022/03/12 01:58:34;;;;;;;7.70;5.53;;;;;;;3.71;32.38;96832.66;5024916;28;20057;-82
2022/03/12 02:01:03;;;;;;;9.85;7.95;;;;;;;3.64;32.52;96829.00;5017295;28;20057;-80
2022/03/12 02:03:32;;;;;;;7.65;5.75;;;;;;;3.63;32.63;96837.69;5016608;28;20096;-78
2022/03/12 02:06:00;;;;;;;9.10;5.57;;;;;;;3.61;32.51;96838.78;5013856;28;20049;-79
2022/03/12 02:08:28;;;;;;;11.63;6.25;;;;;;;3.56;32.56;96831.41;5014292;28;20053;-78
2022/03/12 02:10:57;;;;;;;9.60;5.28;;;;;;;3.55;32.39;96826.41;5014535;28;20500;-77
2022/03/12 02:13:26;;;;;;;8.32;6.25;;;;;;;3.54;32.46;96833.31;5013815;28;20109;-80
2022/03/12 02:16:07;;;;;;;10.52;5.05;;;;;;;3.48;32.59;96828.69;5013176;28;20061;-78
2022/03/12 02:18:36;;;;;;;7.18;5.70;;;;;;;3.46;32.63;96828.81;5013644;28;20052;-78
2022/03/12 02:21:04;;;;;;;9.05;5.93;;;;;;;3.44;32.63;96827.31;5012895;28;20049;-80
2022/03/12 02:23:45;;;;;;;9.20;5.78;;;;;;;3.40;32.66;96826.75;5013477;28;20452;-79
2022/03/12 02:26:13;;;;;;;8.63;6.00;;;;;;;3.39;32.71;96830.31;5013177;28;20050;-76
2022/03/12 02:28:41;;;;;;;9.38;6.03;;;;;;;3.38;32.57;96838.16;5013747;28;20056;-78
2022/03/12 02:31:09;;;;;;;9.02;5.88;;;;;;;3.35;32.50;96836.66;5014077;28;20057;-78
2022/03/12 02:33:37;;;;;;;6.88;5.13;;;;;;;3.36;32.51;96835.69;5014174;28;20053;-79
2022/03/12 02:36:06;;;;;;;8.88;5.80;;;;;;;3.37;32.51;96833.94;5013094;28;20479;-81
2022/03/12 02:38:35;;;;;;;9.13;5.82;;;;;;;3.36;32.82;96827.97;5013795;28;20056;-77
2022/03/12 02:41:10;;;;;;;7.05;5.60;;;;;;;3.29;32.86;96827.69;5014091;28;20056;-78
2022/03/12 02:43:39;;;;;;;6.97;5.30;;;;;;;3.22;32.96;96830.91;5013990;28;20057;-79
2022/03/12 02:46:06;;;;;;;7.43;5.35;;;;;;;3.20;32.86;96828.47;5013033;28;20104;-78
2022/03/12 02:48:34;;;;;;;7.75;5.90;;;;;;;3.18;32.87;96821.81;5014087;28;20459;-77
2022/03/12 02:51:02;;;;;;;8.68;5.05;;;;;;;3.14;32.79;96821.25;5013730;28;20071;-77
2022/03/12 02:53:30;;;;;;;8.18;5.38;;;;;;;3.08;32.96;96817.44;5014231;28;20102;-78
2022/03/12 02:55:58;;;;;;;8.40;5.85;;;;;;;3.05;33.07;96822.03;5013191;28;20054;-77
2022/03/12 02:58:27;;;;;;;6.60;4.95;;;;;;;2.99;33.40;96827.69;5032062;22;20058;-79
2022/03/12 03:00:54;;;;;;;8.48;5.93;;;;;;;2.99;33.21;96822.53;5012955;28;20104;-79
2022/03/12 03:03:22;;;;;;;6.70;5.18;;;;;;;2.92;33.04;96832.53;5012941;28;20050;-79
2022/03/12 03:05:54;;;;;;;8.63;5.07;;;;;;;2.86;33.44;96833.88;5012967;28;20053;-79
2022/03/12 03:08:23;;;;;;;7.93;5.40;;;;;;;2.84;33.41;96829.78;5013261;28;20050;-78
2022/03/12 03:10:53;;;;;;;6.82;4.95;;;;;;;2.83;33.67;96828.97;5013501;28;20041;-79
2022/03/12 03:13:40;;;;;;;9.20;5.28;;;;;;;2.82;33.94;96832.50;5013177;28;20057;-79
2022/03/12 03:16:10;;;;;;;9.38;5.65;;;;;;;2.78;33.66;96840.63;5012407;28;20058;-78
2022/03/12 03:18:40;;;;;;;7.45;5.75;;;;;;;2.75;33.85;96836.50;5013213;28;20050;-78
2022/03/12 03:21:11;;;;;;;7.13;5.28;;;;;;;2.70;33.71;96833.50;5013397;28;20057;-78
2022/03/12 03:23:39;;;;;;;10.90;5.43;;;;;;;2.64;33.88;96836.59;5013427;28;20111;-78
2022/03/12 03:26:07;;;;;;;8.25;5.28;;;;;;;2.58;33.94;96837.94;5012813;28;20108;-79
2022/03/12 03:28:35;;;;;;;8.30;5.13;;;;;;;2.55;33.86;96845.88;5013973;28;20061;-79
2022/03/12 03:31:06;;;;;;;10.68;5.65;;;;;;;2.55;34.16;96848.47;5013113;28;20069;-79
2022/03/12 03:33:34;;;;;;;8.98;5.63;;;;;;;2.53;34.05;96857.25;5016476;28;20447;-79
2022/03/12 03:36:02;;;;;;;8.30;5.47;;;;;;;2.56;34.22;96852.69;5015553;28;20065;-79
2022/03/12 03:38:29;;;;;;;7.55;4.95;;;;;;;2.58;34.19;96862.84;5016827;28;20046;-79
2022/03/12 03:40:57;;;;;;;7.55;5.07;;;;;;;2.58;34.22;96865.41;5016736;28;20511;-79
2022/03/12 03:43:25;;;;;;;7.85;5.88;;;;;;;2.61;34.08;96865.19;5017104;28;20054;-78
2022/03/12 03:45:56;;;;;;;8.32;5.78;;;;;;;2.62;34.20;96866.81;5016211;28;20045;-78
2022/03/12 03:48:36;;;;;;;8.02;5.13;;;;;;;2.63;34.37;96866.69;5016933;28;20056;-79
2022/03/12 03:51:03;;;;;;;8.13;5.40;;;;;;;2.65;34.08;96869.97;5017104;28;20523;-78
2022/03/12 03:53:31;;;;;;;8.07;5.72;;;;;;;2.60;34.11;96868.69;5016771;28;20133;-79
2022/03/12 03:55:59;;;;;;;7.30;5.13;;;;;;;2.50;34.27;96870.41;5015993;28;20447;-79
2022/03/12 03:58:27;;;;;;;9.50;5.82;;;;;;;2.41;34.58;96869.38;5016179;28;20093;-79
2022/03/12 04:00:58;;;;;;;8.77;6.38;;;;;;;2.37;34.70;96878.28;5016296;28;20053;-79
2022/03/12 04:03:29;;;;;;;9.23;5.82;;;;;;;2.37;34.41;96883.44;5016443;28;20042;-79
2022/03/12 04:05:57;;;;;;;9.45;5.28;;;;;;;2.38;34.70;96885.06;5015689;28;20508;-78
2022/03/12 04:08:25;;;;;;;8.63;5.72;;;;;;;2.38;34.60;96870.41;5016728;28;20045;-78
2022/03/12 04:10:53;;;;;;;8.65;5.60;;;;;;;2.42;34.63;96886.44;5016855;28;20061;-79
2022/03/12 04:13:22;;;;;;;9.15;5.15;;;;;;;2.44;34.83;96880.22;5016943;28;20057;-79
2022/03/12 04:15:52;;;;;;;8.73;5.70;;;;;;;2.37;34.67;96878.28;5015931;28;20054;-78
2022/03/12 04:18:21;;;;;;;8.68;5.45;;;;;;;2.35;34.62;96891.28;5016281;28;20130;-79
2022/03/12 04:20:49;;;;;;;7.70;5.60;;;;;;;2.31;34.82;96889.06;5016264;28;20467;-78
2022/03/12 04:23:21;;;;;;;8.60;5.03;;;;;;;2.29;35.02;96896.91;5016433;28;20050;-79
2022/03/12 04:25:49;;;;;;;8.77;6.05;;;;;;;2.28;34.74;96895.28;5015690;28;20061;-79
2022/03/12 04:28:17;;;;;;;11.63;7.45;;;;;;;2.26;34.93;96892.03;5016231;28;20042;-78
2022/03/12 04:30:45;;;;;;;12.60;6.72;;;;;;;2.24;35.00;96888.75;5016000;28;20463;-78
2022/03/12 04:33:14;;;;;;;11.68;6.68;;;;;;;2.26;35.11;96894.59;5016196;28;20060;-78
2022/03/12 04:35:43;;;;;;;10.20;5.85;;;;;;;2.28;35.17;96892.72;5015967;28;20057;-78
2022/03/12 04:38:11;;;;;;;14.30;7.32;;;;;;;2.29;35.03;96891.75;5015446;28;20046;-79
2022/03/12 04:40:42;;;;;;;8.55;6.00;;;;;;;2.26;35.25;96887.69;5016112;28;20582;-78
2022/03/12 04:43:11;;;;;;;10.18;5.85;;;;;;;2.25;35.14;96888.63;5015024;28;20061;-78
2022/03/12 04:45:42;;;;;;;10.55;6.00;;;;;;;2.22;35.17;96890.63;5015954;28;20058;-78
2022/03/12 04:48:13;;;;;;;12.38;6.18;;;;;;;2.15;35.44;96892.88;5015431;28;20053;-79
2022/03/12 04:50:41;;;;;;;10.60;6.20;;;;;;;2.13;35.12;96891.38;5015903;28;20061;-79
2022/03/12 04:53:09;;;;;;;14.23;7.07;;;;;;;2.13;35.35;96888.78;5015728;28;20049;-79
2022/03/12 04:55:39;;;;;;;12.60;6.50;;;;;;;2.12;35.71;96889.72;5015569;28;20061;-78
2022/03/12 04:58:09;;;;;;;8.82;5.88;;;;;;;2.09;35.54;96892.53;5014313;28;20049;-78
2022/03/12 05:00:38;;;;;;;13.80;5.30;;;;;;;2.08;35.40;96894.31;5015577;28;20543;-78
2022/03/12 05:03:08;;;;;;;14.32;6.63;;;;;;;2.06;35.41;96896.19;5015199;28;20622;-78
2022/03/12 05:05:39;;;;;;;12.27;6.32;;;;;;;1.99;35.68;96898.44;5015264;28;20054;-79
2022/03/12 05:08:08;;;;;;;8.52;5.95;;;;;;;2.01;35.69;96899.13;5014493;28;20053;-79
2022/03/12 05:10:35;;;;;;;11.23;5.68;;;;;;;2.05;35.57;96902.25;5015303;28;20057;-79
2022/03/12 05:13:04;;;;;;;9.57;5.95;;;;;;;2.09;35.55;96895.94;5015222;28;20073;-78
2022/03/12 05:15:37;;;;;;;9.05;5.43;;;;;;;2.09;35.68;96900.25;5015211;28;20050;-79
2022/03/12 05:18:07;;;;;;;11.98;5.68;;;;;;;2.09;35.53;96895.13;5014849;28;20053;-78
2022/03/12 05:20:37;;;;;;;8.95;5.40;;;;;;;2.07;35.30;96900.38;5014751;28;20050;-78
2022/03/12 05:23:07;;;;;;;9.38;5.55;;;;;;;2.02;35.60;96900.75;5014974;28;20061;-79
2022/03/12 05:25:39;;;;;;;9.45;6.65;;;;;;;2.00;35.52;96907.75;5015289;28;20069;-78
2022/03/12 05:28:06;;;;;;;11.27;6.13;;;;;;;1.99;35.67;96913.03;5013859;28;20060;-78
2022/03/12 05:30:35;;;;;;;9.57;5.80;;;;;;;1.99;35.68;96905.31;5015003;28;20519;-79
2022/03/12 05:33:03;;;;;;;10.90;6.88;;;;;;;1.96;35.68;96911.50;5015013;28;20531;-78
2022/03/12 05:35:31;;;;;;;8.52;5.78;;;;;;;1.98;35.58;96919.94;5014921;28;20054;-79
2022/03/12 05:37:58;;;;;;;7.50;5.95;;;;;;;1.97;35.69;96918.31;5014043;28;20053;-78
2022/03/12 05:40:29;;;;;;;11.60;7.10;;;;;;;1.93;35.68;96922.06;5014738;28;20080;-79
2022/03/12 05:42:56;;;;;;;10.07;6.53;;;;;;;1.93;35.71;96921.25;5014836;28;20042;-79
2022/03/12 05:45:24;;;;;;;8.40;6.60;;;;;;;1.88;35.76;96918.19;5014520;28;20053;-79
2022/03/12 05:47:53;;;;;;;8.93;6.18;;;;;;;1.81;35.99;96923.00;5013903;28;20050;-78
2022/03/12 05:50:21;;;;;;;7.80;5.43;;;;;;;1.82;35.79;96919.50;5014778;28;20054;-77
2022/03/12 05:52:49;;;;;;;9.75;5.95;;;;;;;1.82;36.03;96927.22;5014554;28;20046;-79
2022/03/12 05:55:19;;;;;;;7.88;5.40;;;;;;;1.80;36.09;96926.53;5014438;28;20054;-79
2022/03/12 05:57:47;;;;;;;7.93;5.35;;;;;;;1.82;36.16;96929.78;5013559;28;20487;-78
2022/03/12 06:00:17;;;;;;;8.63;5.88;;;;;;;1.82;36.25;96924.66;5014255;28;20057;-79
2022/03/12 06:02:49;;;;;;;7.10;5.38;;;;;;;1.80;36.17;96931.66;5014588;28;20050;-78
2022/03/12 06:05:19;;;;;;;8.88;6.00;;;;;;;1.81;36.20;96928.16;5014688;28;20049;-79
2022/03/12 06:07:46;;;;;;;9.45;6.05;;;;;;;1.78;36.07;96934.34;5013173;28;20052;-79
2022/03/12 06:10:16;;;;;;;11.43;6.57;;;;;;;1.76;36.08;96930.25;5013569;28;20054;-78
2022/03/12 06:12:44;;;;;;;13.38;7.25;;;;;;;1.72;36.32;96934.81;5014064;28;20470;-79
2022/03/12 06:15:14;;;;;;;10.13;6.90;;;;;;;1.72;36.25;96939.16;5014278;28;20057;-78
2022/03/12 06:17:41;;;;;;;12.25;7.13;;;;;;;1.72;36.44;96934.00;5013580;28;20053;-79
2022/03/12 06:20:10;;;;;;;9.63;6.28;;;;;;;1.71;36.47;96943.47;5013709;28;20050;-78
2022/03/12 06:22:39;;;;;;;10.20;6.30;;;;;;;1.73;36.63;96940.78;5013802;28;20065;-79
2022/03/12 06:25:09;;;;;;;10.45;5.93;;;;;;;1.77;36.40;96943.00;5013534;28;20057;-78
2022/03/12 06:27:37;;;;;;;9.15;5.80;;;;;;;1.81;36.46;96948.72;5013389;28;20065;-79
2022/03/12 06:30:07;;;;;;;10.50;6.47;;;;;;;1.82;36.23;96945.22;5013867;28;20056;-78
2022/03/12 06:32:35;;;;;;;8.63;5.72;;;;;;;1.82;36.15;96943.47;5014191;28;20053;-78
2022/03/12 06:35:03;;;;;;;11.23;7.47;;;;;;;1.85;35.82;96957.84;5013596;28;20053;-79
2022/03/12 06:37:31;;;;;;;11.85;6.05;;;;;;;1.87;36.20;96950.81;5012714;28;20053;-79
2022/03/12 06:40:00;;;;;;;11.07;6.75;;;;;;;1.86;36.29;96954.34;5013505;28;20046;-78
2022/03/12 06:42:33;;;;;;;11.98;6.70;;;;;;;1.89;36.34;96964.38;5013753;28;20062;-78
2022/03/12 06:45:01;;;;;;;10.48;5.90;;;;;;;1.89;36.22;96963.56;5013372;28;20046;-78
2022/03/12 06:47:32;;;;;;;11.43;7.10;;;;;;;1.89;36.12;96961.81;5012646;28;20050;-78
2022/03/12 06:50:00;;;;;;;8.30;6.30;;;;;;;1.91;36.23;96965.09;5013646;28;20504;-78
2022/03/12 06:52:29;;;;;;;8.50;5.82;;;;;;;1.96;36.02;96967.31;5020021;28;20050;-81
2022/03/12 06:56:00;;;;;;;9.10;5.75;;;;;;;2.08;36.27;96962.94;5015775;28;20046;-81
2022/03/12 08:41:58;;;;;;;12.40;7.40;;;;;;;10.01;26.78;96993.22;5550075;22;20063;-80
2022/03/12 08:59:10;;;;;;;14.90;6.95;;;;;;;11.65;26.61;96984.34;5732370;22;20130;-80
2022/03/12 09:01:38;;;;;;;10.73;7.18;;;;;;;11.84;26.20;96990.84;5087863;28;20049;-81
2022/03/12 09:04:06;;;;;;;11.65;7.82;;;;;;;12.06;26.13;96994.38;5089121;28;20054;-82
2022/03/12 09:06:33;;;;;;;10.65;7.10;;;;;;;12.21;25.73;96991.78;5083221;28;20055;-80
2022/03/12 09:09:01;;;;;;;11.88;8.15;;;;;;;12.31;25.58;96994.91;5082158;28;20045;-80
2022/03/12 09:11:28;;;;;;;12.50;8.38;;;;;;;12.40;26.22;96992.19;5098246;28;20044;-82
2022/03/12 09:13:56;;;;;;;11.98;8.98;;;;;;;12.56;25.69;96994.59;5097189;28;20453;-80
2022/03/12 09:16:25;;;;;;;12.27;7.65;;;;;;;12.67;25.07;96998.53;5098752;28;20048;-81
2022/03/12 09:18:53;;;;;;;12.40;8.85;;;;;;;12.74;24.97;96989.75;5099326;28;20402;-81
2022/03/12 09:21:20;;;;;;;11.25;7.88;;;;;;;12.86;25.16;96986.66;5111523;28;20058;-82
2022/03/12 09:23:48;;;;;;;11.30;8.13;;;;;;;13.10;25.21;96988.91;5103076;28;20044;-80
2022/03/12 09:26:17;;;;;;;12.27;7.80;;;;;;;13.37;24.37;96983.91;5096612;28;20048;-80
2022/03/12 09:28:45;;;;;;;15.02;8.65;;;;;;;13.63;24.41;96982.50;5080434;28;20056;-81
2022/03/12 09:31:13;;;;;;;12.45;8.02;;;;;;;13.88;23.99;96978.38;5083395;28;20059;-81
2022/03/12 09:33:42;;;;;;;10.05;7.82;;;;;;;14.10;23.75;96975.69;5098446;28;20072;-80
2022/03/12 09:36:09;;;;;;;9.63;7.65;;;;;;;14.42;23.86;96971.59;5096340;28;20406;-80
2022/03/12 09:38:37;;;;;;;8.10;7.25;;;;;;;14.79;23.42;96978.19;5097111;28;20095;-79
2022/03/12 09:41:05;;;;;;;9.57;7.25;;;;;;;15.22;23.09;96975.22;5096350;28;20055;-82
2022/03/12 09:43:33;;;;;;;10.25;7.47;;;;;;;15.66;22.95;96967.69;5101339;28;20044;-81
2022/03/12 09:46:01;;;;;;;11.30;7.90;;;;;;;16.20;22.34;96971.03;5100164;27;20044;-79
2022/03/12 09:48:29;;;;;;;9.05;7.47;;;;;;;16.73;21.62;96973.44;5096975;28;20052;-80
2022/03/12 09:50:58;;;;;;;8.90;7.70;;;;;;;17.20;21.19;96973.13;5099090;28;20391;-77
2022/03/12 09:53:26;;;;;;;11.88;8.45;;;;;;;17.71;20.97;96972.91;5095545;28;20540;-80
2022/03/12 09:55:53;;;;;;;11.73;8.30;;;;;;;18.26;20.49;96966.06;5093451;28;20062;-79
2022/03/12 09:58:21;;;;;;;10.25;7.90;;;;;;;18.74;19.86;96967.91;5095479;28;20055;-81
2022/03/12 10:00:49;;;;;;;11.00;7.50;;;;;;;19.20;19.80;96971.72;5094275;28;20063;-80
2022/03/12 10:03:16;;;;;;;9.20;7.57;;;;;;;19.78;18.85;96966.72;5094100;28;20059;-81
2022/03/12 10:05:47;;;;;;;10.35;7.57;;;;;;;20.50;18.04;96971.63;5093359;28;20093;-79
2022/03/12 10:08:16;;;;;;;9.02;7.15;;;;;;;21.19;17.49;96971.59;5094542;28;20044;-80
2022/03/12 10:10:44;;;;;;;8.68;7.13;;;;;;;22.07;16.80;96965.72;5093839;28;20413;-80
2022/03/12 10:13:12;;;;;;;9.55;7.38;;;;;;;23.02;15.93;96971.59;5093859;28;20047;-81
2022/03/12 10:15:39;;;;;;;9.93;7.75;;;;;;;23.80;15.33;96961.28;5094727;28;20048;-80
2022/03/12 10:18:07;;;;;;;9.70;8.35;;;;;;;24.52;14.78;96974.97;5093114;28;20044;-80
2022/03/12 10:20:35;;;;;;;10.55;8.05;;;;;;;25.17;14.17;96970.03;5093786;28;20040;-80
2022/03/12 10:23:03;;;;;;;8.38;7.18;;;;;;;25.76;14.02;96960.66;5094862;28;20048;-81
2022/03/12 10:25:33;;;;;;;9.40;7.53;;;;;;;26.48;13.22;96963.13;5094343;28;20044;-80
2022/03/12 10:28:01;;;;;;;9.27;6.90;;;;;;;27.07;12.89;96962.25;5095401;28;20040;-80
2022/03/12 10:30:28;;;;;;;10.43;7.60;;;;;;;27.52;12.47;96962.97;5096255;28;20070;-80
2022/03/12 10:32:56;;;;;;;8.48;7.57;;;;;;;27.98;12.27;96956.38;5093179;28;20532;-81
2022/03/12 10:35:25;;;;;;;10.45;8.48;;;;;;;28.34;12.14;96959.44;5094398;28;20044;-81
2022/03/12 10:37:54;;;;;;;10.05;8.00;;;;;;;28.55;11.66;96945.78;5097897;28;20052;-81
2022/03/12 10:40:24;;;;;;;11.20;8.18;;;;;;;28.47;12.23;96957.13;5092566;28;20047;-80
2022/03/12 10:42:56;;;;;;;10.32;8.77;;;;;;;28.59;11.72;96949.50;5093382;28;20055;-81
2022/03/12 10:45:32;;;;;;;11.68;8.48;;;;;;;28.90;11.71;96949.06;5103606;28;20044;-81
2022/03/12 10:48:03;;;;;;;11.50;8.87;;;;;;;28.95;11.62;96946.28;5106629;28;20028;-81
2022/03/12 10:50:34;;;;;;;9.27;8.27;;;;;;;28.71;11.65;96947.19;5117086;27;20040;-81
2022/03/12 10:53:05;;;;;;;9.27;8.25;;;;;;;28.31;11.88;96949.28;5115649;27;20135;-82
2022/03/12 10:55:36;;;;;;;12.18;9.80;;;;;;;27.50;12.58;96941.03;5110308;28;20044;-82
2022/03/12 10:58:12;;;;;;;11.15;9.43;;;;;;;26.48;13.05;96933.72;5103787;28;20044;-81
2022/03/12 11:00:47;;;;;;;14.00;9.20;;;;;;;25.83;13.31;96937.13;5100415;28;20054;-79
2022/03/12 11:03:21;;;;;;;11.77;9.52;;;;;;;25.70;13.53;96935.81;5104519;27;20100;-82
2022/03/12 11:05:51;;;;;;;10.30;9.30;;;;;;;25.97;13.66;96932.03;5100527;28;20078;-81
2022/03/12 11:08:22;;;;;;;12.20;8.63;;;;;;;26.28;13.38;96927.38;5103394;28;20055;-82
2022/03/12 12:17:53;;;;;;;10.05;6.43;;;;;;;24.70;18.77;96852.84;6182452;23;20085;-79
2022/03/12 12:20:22;;;;;;;6.97;4.60;;;;;;;24.29;19.71;96837.56;6207655;22;20833;-82
2022/03/12 12:26:07;;;;;;;6.32;5.22;;;;;;;23.30;20.85;96840.09;6202677;22;20017;-80
2022/03/12 12:34:24;;;;;;;7.55;5.78;;;;;;;21.16;21.73;96834.09;6209700;22;20021;-80
2022/03/12 12:37:01;;;;;;;7.80;6.28;;;;;;;20.52;22.82;96839.72;6178775;23;20112;-81
2022/03/12 12:39:29;;;;;;;8.60;6.50;;;;;;;20.17;22.92;96841.47;6206656;23;20457;-81
2022/03/12 12:42:01;;;;;;;8.13;6.10;;;;;;;19.71;23.47;96831.84;6200799;23;20027;-81
2022/03/12 12:44:42;;;;;;;9.18;6.63;;;;;;;19.26;23.92;96827.19;6214049;22;20037;-80
2022/03/12 12:47:19;;;;;;;8.02;6.18;;;;;;;19.01;24.16;96816.84;6212207;22;20032;-81
2022/03/12 12:55:44;;;;;;;8.65;5.97;;;;;;;18.42;24.99;96809.63;6213241;22;20020;-81
2022/03/12 13:01:16;;;;;;;7.35;5.78;;;;;;;18.07;25.59;96805.03;6219650;22;20025;-85
2022/03/12 13:04:36;;;;;;;7.88;6.43;;;;;;;18.01;26.39;96795.38;6212947;22;20009;-84
2022/03/12 13:07:30;;;;;;;8.00;6.35;;;;;;;18.00;26.27;96801.69;6168949;22;20025;-80
2022/03/12 13:12:53;;;;;;;12.38;7.32;;;;;;;17.74;26.26;96788.81;6204164;22;20005;-80
2022/03/12 13:20:54;;;;;;;9.40;7.30;;;;;;;17.36;26.07;96782.78;6198067;22;20021;-81
2022/03/12 13:28:48;;;;;;;9.27;7.22;;;;;;;17.01;28.07;96783.34;6193858;22;20079;-74
2022/03/12 13:31:19;;;;;;;7.38;6.28;;;;;;;17.00;29.04;96783.53;6186571;23;20028;-74
2022/03/12 13:33:49;;;;;;;9.93;7.07;;;;;;;16.96;28.36;96787.63;6186666;23;20067;-75
2022/03/12 13:36:23;;;;;;;14.13;7.03;;;;;;;16.78;28.72;96786.53;6185089;23;20021;-75
2022/03/12 13:38:53;;;;;;;10.95;7.07;;;;;;;16.56;27.82;96782.69;6186325;23;20025;-74
2022/03/12 13:43:57;;;;;;;9.38;7.38;;;;;;;16.22;28.16;96775.06;6143926;23;20024;-78
2022/03/12 13:46:38;;;;;;;10.55;7.10;;;;;;;16.19;29.11;96772.81;6165998;23;20025;-78
2022/03/12 13:49:25;;;;;;;14.07;7.70;;;;;;;16.14;28.02;96777.13;6153214;23;20023;-80
2022/03/12 13:54:59;;;;;;;8.87;7.00;;;;;;;15.80;28.46;96763.34;5190962;22;1190628;-80
2022/03/12 13:57:29;;;;;;;10.35;7.55;;;;;;;15.61;28.45;96765.84;5110322;28;20326;-80
2022/03/12 14:00:39;;;;;;;10.95;7.07;;;;;;;15.48;28.91;96773.78;5421965;22;20051;-80
2022/03/12 14:06:02;;;;;;;9.18;7.20;;;;;;;15.30;28.73;96768.38;5088727;22;20121;-81
2022/03/12 14:15:01;;;;;;;12.13;7.83;;;;;;;15.16;28.63;96762.38;5350939;23;20254;-80
2022/03/12 14:31:05;;;;;;;12.15;7.90;;;;;;;14.71;29.14;96742.03;1351394;26;20025;-79
2022/03/12 14:37:27;;;;;;;11.73;7.82;;;;;;;14.62;28.97;96738.00;5221196;23;20041;-79
2022/03/12 14:40:12;;;;;;;12.13;7.93;;;;;;;14.57;29.26;96740.44;5054553;28;20037;-78
2022/03/12 14:48:06;;;;;;;13.52;8.13;;;;;;;14.46;29.05;96728.72;5144346;22;20053;-81
2022/03/12 14:50:38;;;;;;;12.73;8.77;;;;;;;14.39;28.95;96727.91;5034189;28;20038;-80
2022/03/12 14:54:03;;;;;;;11.35;8.23;;;;;;;14.35;29.71;96719.63;5022945;28;20038;-81
2022/03/12 15:12:59;;;;;;;11.40;8.25;;;;;;;14.28;29.16;96728.50;5918828;23;20041;-80
2022/03/12 15:15:28;;;;;;;15.73;8.93;;;;;;;14.21;29.16;96736.38;5043436;28;20045;-80
2022/03/12 15:18:09;;;;;;;14.85;8.82;;;;;;;14.11;28.54;96728.13;5041836;28;20053;-79
2022/03/12 15:20:40;;;;;;;12.93;8.73;;;;;;;14.02;29.42;96725.69;5040080;28;20514;-74
2022/03/12 15:23:09;;;;;;;11.48;8.82;;;;;;;13.93;29.64;96721.63;5024535;28;20504;-77
2022/03/12 15:25:44;;;;;;;12.38;9.45;;;;;;;13.87;28.64;96727.69;5040479;28;20061;-88
2022/03/12 15:28:22;;;;;;;20.33;11.15;;;;;;;13.82;28.29;96719.59;5042191;28;20053;-86
2022/03/12 15:30:54;;;;;;;13.77;9.52;;;;;;;13.77;28.33;96720.22;5042642;28;20573;-89
2022/03/12 15:33:27;;;;;;;12.52;8.93;;;;;;;13.73;28.14;96721.59;5043261;28;20533;-77
2022/03/12 15:36:07;;;;;;;13.38;9.63;;;;;;;13.70;28.53;96715.94;5041144;28;20435;-82
2022/03/12 15:38:36;;;;;;;15.25;10.88;;;;;;;13.69;28.35;96715.13;5041340;28;20077;-77
2022/03/12 15:41:03;;;;;;;15.60;11.35;;;;;;;13.68;28.50;96718.75;5040443;28;20108;-77
2022/03/12 15:43:32;;;;;;;14.65;10.02;;;;;;;13.69;28.05;96714.34;5041500;28;20407;-77
2022/03/12 15:45:59;;;;;;;14.32;10.65;;;;;;;13.73;29.49;96715.53;5034326;28;20119;-74
2022/03/12 15:48:27;;;;;;;19.48;12.13;;;;;;;13.76;28.94;96715.94;5037149;28;20080;-75
2022/03/12 15:50:54;;;;;;;18.63;12.52;;;;;;;13.75;27.61;96714.34;5044755;28;20065;-86
2022/03/12 15:53:24;;;;;;;15.90;11.63;;;;;;;13.70;27.12;96708.06;5046570;28;20073;-85
2022/03/12 15:55:52;;;;;;;20.77;13.18;;;;;;;13.62;26.81;96713.50;5047264;28;20056;-84
2022/03/12 15:58:19;;;;;;;17.17;12.07;;;;;;;13.53;27.34;96710.25;5046623;28;20412;-82
2022/03/12 16:00:49;;;;;;;17.05;12.23;;;;;;;13.45;26.76;96713.88;5045883;28;20451;-82
2022/03/12 16:03:17;;;;;;;19.05;12.02;;;;;;;13.39;26.77;96714.66;5053630;28;20057;-83
2022/03/12 16:05:45;;;;;;;18.35;13.13;;;;;;;13.32;26.65;96719.06;5039778;28;20045;-87
2022/03/12 16:08:13;;;;;;;18.08;12.10;;;;;;;13.25;27.84;96711.16;5036747;28;20045;-82
2022/03/12 16:10:41;;;;;;;15.80;12.45;;;;;;;13.21;27.45;96702.06;5036622;28;20557;-80
2022/03/12 16:13:10;;;;;;;17.30;12.15;;;;;;;13.18;26.96;96708.50;5035979;28;20514;-83
2022/03/12 16:15:50;;;;;;;21.27;12.85;;;;;;;13.14;26.96;96695.97;5035621;28;20597;-81
2022/03/12 16:18:24;;;;;;;15.93;12.75;;;;;;;13.10;26.88;96706.03;5035780;28;20076;-81
2022/03/12 16:20:56;;;;;;;17.90;13.05;;;;;;;13.06;28.38;96699.56;5036471;28;20566;-81